createdAt,value
2022-11-08T00:02:20.170Z,100188.95
2022-11-08T00:04:47.015Z,100185.45
2022-11-08T00:07:32.440Z,100187.47
2022-11-08T00:10:16.836Z,100186.89
2022-11-08T00:13:01.229Z,100182.66
2022-11-08T00:15:28.104Z,100181.16
2022-11-08T00:17:54.839Z,100180.59
2022-11-08T00:20:21.600Z,100180.23
2022-11-08T00:22:48.426Z,100181.45
2022-11-08T00:25:15.130Z,100186.44
2022-11-08T00:27:41.909Z,100181.92
2022-11-08T00:30:10.342Z,100188.46
2022-11-08T00:32:37.077Z,100187.25
2022-11-08T00:35:03.900Z,100185.95
2022-11-08T00:37:30.627Z,100186.25
2022-11-08T00:39:57.367Z,100187.77
2022-11-08T00:42:24.069Z,100190.52
2022-11-08T00:44:50.743Z,100191.71
2022-11-08T00:47:17.474Z,100186.52
2022-11-08T00:49:44.220Z,100187.68
2022-11-08T00:52:10.942Z,100183.42
2022-11-08T00:54:37.629Z,100183.38
2022-11-08T00:57:04.433Z,100180.17
2022-11-08T00:59:31.154Z,100177.80
2022-11-08T01:01:57.957Z,100179.92
2022-11-08T01:04:25.106Z,100181.92
2022-11-08T01:06:51.848Z,100183.80
2022-11-08T01:09:18.646Z,100180.49
2022-11-08T01:11:47.842Z,100181.34
2022-11-08T01:14:15.711Z,100183.94
2022-11-08T01:16:42.491Z,100181.67
2022-11-08T01:19:09.373Z,100178.36
2022-11-08T01:21:36.312Z,100175.20
2022-11-08T01:24:03.577Z,100175.31
2022-11-08T01:26:31.196Z,100175.38
2022-11-08T01:28:58.747Z,100171.00
2022-11-08T01:31:27.141Z,100170.57
2022-11-08T01:33:54.531Z,100169.95
2022-11-08T01:36:23.970Z,100169.69
2022-11-08T01:38:51.044Z,100164.77
2022-11-08T01:41:19.421Z,100163.15
2022-11-08T01:43:47.247Z,100164.13
2022-11-08T01:46:34.753Z,100165.97
2022-11-08T01:49:01.657Z,100165.23
2022-11-08T01:51:32.214Z,100166.25
2022-11-08T01:54:00.091Z,100167.11
2022-11-08T01:56:27.635Z,100166.77
2022-11-08T01:58:57.475Z,100165.40
2022-11-08T02:01:24.580Z,100166.50
2022-11-08T02:03:52.452Z,100169.08
2022-11-08T02:06:19.817Z,100166.45
2022-11-08T02:08:47.180Z,100166.46
2022-11-08T02:11:17.085Z,100164.34
2022-11-08T02:13:44.245Z,100163.25
2022-11-08T02:16:14.500Z,100161.80
2022-11-08T02:18:42.289Z,100162.92
2022-11-08T02:21:15.237Z,100163.43
2022-11-08T02:23:48.237Z,100163.90
2022-11-08T02:26:16.332Z,100166.14
2022-11-08T02:28:44.703Z,100167.41
2022-11-08T02:31:12.852Z,100166.73
2022-11-08T02:33:40.111Z,100165.72
2022-11-08T02:36:08.354Z,100163.83
2022-11-08T02:38:39.934Z,100160.77
2022-11-08T02:41:07.290Z,100162.89
2022-11-08T02:43:34.241Z,100160.15
2022-11-08T02:46:01.966Z,100160.96
2022-11-08T02:48:29.230Z,100160.27
2022-11-08T02:50:56.129Z,100158.36
2022-11-08T02:53:23.071Z,100159.05
2022-11-08T02:55:49.949Z,100160.61
2022-11-08T02:58:17.246Z,100162.20
2022-11-08T03:00:44.239Z,100159.65
2022-11-08T03:03:11.608Z,100162.27
2022-11-08T03:05:38.494Z,100160.40
2022-11-08T03:08:05.582Z,100160.59
2022-11-08T03:10:32.552Z,100162.34
2022-11-08T03:13:00.623Z,100165.32
2022-11-08T03:15:28.232Z,100167.55
2022-11-08T03:17:56.373Z,100167.39
2022-11-08T03:20:23.964Z,100166.66
2022-11-08T03:22:57.804Z,100169.39
2022-11-08T03:25:24.800Z,100168.51
2022-11-08T03:27:51.694Z,100168.34
2022-11-08T03:30:18.910Z,100172.83
2022-11-08T03:32:46.919Z,100168.73
2022-11-08T03:35:13.831Z,100172.41
2022-11-08T03:37:40.815Z,100174.52
2022-11-08T03:40:09.859Z,100176.45
2022-11-08T03:42:37.099Z,100176.63
2022-11-08T03:45:04.503Z,100173.49
2022-11-08T03:47:31.343Z,100174.70
2022-11-08T03:49:58.126Z,100179.06
2022-11-08T03:52:24.976Z,100186.36
2022-11-08T03:54:51.798Z,100188.86
2022-11-08T03:57:18.625Z,100190.14
2022-11-08T03:59:45.382Z,100188.23
2022-11-08T04:02:12.355Z,100187.73
2022-11-08T04:04:39.595Z,100190.02
2022-11-08T04:07:06.706Z,100187.23
2022-11-08T04:09:34.012Z,100180.14
2022-11-08T04:12:18.346Z,100179.11
2022-11-08T04:15:02.975Z,100173.99
2022-11-08T04:17:43.656Z,100174.73
2022-11-08T04:20:29.651Z,100177.35
2022-11-08T04:22:56.500Z,100172.98
2022-11-08T04:25:23.450Z,100172.64
2022-11-08T04:27:50.871Z,100167.59
2022-11-08T04:30:17.797Z,100170.33
2022-11-08T04:32:44.754Z,100168.03
2022-11-08T04:35:12.003Z,100169.77
2022-11-08T04:37:38.860Z,100169.83
2022-11-08T04:40:06.230Z,100173.66
2022-11-08T04:42:33.063Z,100166.59
2022-11-08T04:44:59.936Z,100163.52
2022-11-08T04:47:26.872Z,100164.93
2022-11-08T04:49:54.334Z,100167.54
2022-11-08T04:52:21.478Z,100167.05
2022-11-08T04:54:48.618Z,100169.20
2022-11-08T04:57:16.399Z,100173.03
2022-11-08T04:59:43.611Z,100175.12
2022-11-08T05:02:10.714Z,100170.51
2022-11-08T05:04:37.611Z,100168.84
2022-11-08T05:07:04.454Z,100170.13
2022-11-08T05:09:33.541Z,100170.56
2022-11-08T05:12:00.807Z,100169.60
2022-11-08T05:14:27.724Z,100170.05
2022-11-08T05:16:54.658Z,100167.86
2022-11-08T05:19:35.904Z,100164.44
2022-11-08T05:22:20.590Z,100164.13
2022-11-08T05:24:47.406Z,100165.17
2022-11-08T05:27:14.361Z,100171.58
2022-11-08T05:29:42.347Z,100177.51
2022-11-08T05:32:09.615Z,100182.21
2022-11-08T05:34:36.749Z,100191.05
2022-11-08T05:37:03.618Z,100190.55
2022-11-08T05:39:32.283Z,100194.70
2022-11-08T05:41:59.454Z,100194.86
2022-11-08T05:44:26.301Z,100194.73
2022-11-08T05:46:53.181Z,100195.59
2022-11-08T05:49:20.127Z,100199.59
2022-11-08T05:51:47.352Z,100197.20
2022-11-08T05:54:14.237Z,100197.16
2022-11-08T05:56:41.111Z,100197.29
2022-11-08T05:59:08.112Z,100193.45
2022-11-08T06:01:35.259Z,100192.73
2022-11-08T06:04:02.132Z,100192.47
2022-11-08T06:06:28.958Z,100195.31
2022-11-08T06:08:55.991Z,100194.90
2022-11-08T06:11:25.575Z,100197.02
2022-11-08T06:13:53.433Z,100192.80
2022-11-08T06:16:21.692Z,100196.64
2022-11-08T06:18:48.793Z,100195.84
2022-11-08T06:21:18.800Z,100195.70
2022-11-08T06:23:46.115Z,100197.07
2022-11-08T06:26:13.099Z,100199.83
2022-11-08T06:28:40.431Z,100201.49
2022-11-08T06:31:08.137Z,100203.52
2022-11-08T06:33:35.270Z,100202.23
2022-11-08T06:36:02.730Z,100203.05
2022-11-08T06:38:30.058Z,100208.17
2022-11-08T06:40:59.715Z,100209.58
2022-11-08T06:43:27.255Z,100213.26
2022-11-08T06:45:54.579Z,100210.13
2022-11-08T06:48:21.421Z,100211.77
2022-11-08T06:50:48.606Z,100215.14
2022-11-08T06:53:16.486Z,100218.06
2022-11-08T06:55:44.017Z,100214.18
2022-11-08T06:58:11.888Z,100214.92
2022-11-08T07:00:39.047Z,100221.54
2022-11-08T07:03:07.161Z,100222.77
2022-11-08T07:05:36.513Z,100226.08
2022-11-08T07:08:04.022Z,100228.98
2022-11-08T07:10:33.156Z,100229.92
2022-11-08T07:13:05.334Z,100229.75
2022-11-08T07:15:32.753Z,100232.88
2022-11-08T07:18:02.779Z,100234.98
2022-11-08T07:20:30.676Z,100236.17
2022-11-08T07:22:58.767Z,100236.02
2022-11-08T07:25:26.152Z,100241.70
2022-11-08T07:27:55.511Z,100233.04
2022-11-08T07:30:22.490Z,100232.45
2022-11-08T07:32:49.482Z,100234.70
2022-11-08T07:35:16.387Z,100234.63
2022-11-08T07:37:43.488Z,100235.41
2022-11-08T07:40:13.300Z,100238.40
2022-11-08T07:43:09.629Z,100233.98
2022-11-08T07:45:26.377Z,100229.29
2022-11-08T07:48:03.404Z,100237.80
2022-11-08T07:50:34.378Z,100238.07
2022-11-08T07:53:01.203Z,100239.44
2022-11-08T07:55:28.498Z,100237.00
2022-11-08T07:58:01.385Z,100234.70
2022-11-08T08:00:28.311Z,100234.06
2022-11-08T08:03:00.495Z,100227.55
2022-11-08T08:05:28.262Z,100221.70
2022-11-08T08:07:57.286Z,100223.96
2022-11-08T08:10:24.150Z,100219.52
2022-11-08T08:12:51.206Z,100217.06
2022-11-08T08:15:18.240Z,100214.73
2022-11-08T08:17:45.192Z,100214.73
2022-11-08T08:20:14.393Z,100211.25
2022-11-08T08:22:46.071Z,100209.02
2022-11-08T08:25:13.907Z,100209.34
2022-11-08T08:27:40.855Z,100209.41
2022-11-08T08:30:09.872Z,100210.58
2022-11-08T08:32:36.723Z,100213.23
2022-11-08T08:35:03.942Z,100215.45
2022-11-08T08:37:31.591Z,100214.20
2022-11-08T08:39:58.523Z,100210.66
2022-11-08T08:42:25.377Z,100207.23
2022-11-08T08:44:52.515Z,100209.36
2022-11-08T08:47:19.357Z,100209.50
2022-11-08T08:49:46.199Z,100210.90
2022-11-08T08:52:13.075Z,100214.57
2022-11-08T08:54:39.888Z,100215.40
2022-11-08T08:57:06.883Z,100218.56
2022-11-08T09:02:20.887Z,100212.64
2022-11-08T09:04:47.726Z,100214.80
2022-11-08T09:07:14.690Z,100216.48
2022-11-08T09:09:41.752Z,100212.45
2022-11-08T09:12:11.777Z,100211.80
2022-11-08T09:14:41.523Z,100212.86
2022-11-08T09:17:08.667Z,100210.14
2022-11-08T09:19:35.627Z,100206.20
2022-11-08T09:22:02.747Z,100209.64
2022-11-08T09:24:29.781Z,100211.19
2022-11-08T09:26:56.645Z,100213.45
2022-11-08T09:29:23.758Z,100216.39
2022-11-08T09:31:50.791Z,100217.36
2022-11-08T09:34:20.630Z,100217.05
2022-11-08T09:36:48.729Z,100220.46
2022-11-08T09:39:16.460Z,100218.48
2022-11-08T09:42:08.187Z,100217.43
2022-11-08T09:44:59.099Z,100218.31
2022-11-08T09:47:30.781Z,100220.73
2022-11-08T09:50:05.268Z,100218.36
2022-11-08T09:52:34.430Z,100222.97
2022-11-08T09:55:12.242Z,100220.84
2022-11-08T09:57:51.647Z,100213.02
2022-11-08T10:00:19.568Z,100211.83
2022-11-08T10:02:46.515Z,100216.46
2022-11-08T10:05:17.441Z,100216.98
2022-11-08T10:07:50.895Z,100214.63
2022-11-08T10:10:41.953Z,100213.70
2022-11-08T10:13:18.175Z,100209.18
2022-11-08T10:15:54.749Z,100205.45
2022-11-08T10:18:43.144Z,100206.61
2022-11-08T10:21:22.032Z,100208.75
2022-11-08T10:23:56.081Z,100201.85
2022-11-08T10:26:27.465Z,100202.73
2022-11-08T10:29:00.610Z,100201.20
2022-11-08T10:31:33.160Z,100202.35
2022-11-08T10:34:02.991Z,100202.15
2022-11-08T10:36:35.912Z,100202.59
2022-11-08T10:39:11.457Z,100198.48
2022-11-08T10:41:45.149Z,100192.14
2022-11-08T10:44:16.806Z,100190.57
2022-11-08T10:46:46.053Z,100194.29
2022-11-08T10:49:17.693Z,100191.08
2022-11-08T10:51:46.555Z,100188.73
2022-11-08T10:54:45.682Z,100187.58
2022-11-08T10:57:13.928Z,100184.20
2022-11-08T10:59:41.554Z,100176.27
2022-11-08T11:02:21.699Z,100174.77
2022-11-08T11:04:49.334Z,100172.40
2022-11-08T11:07:39.013Z,100170.72
2022-11-08T11:10:26.061Z,100171.86
2022-11-08T11:13:01.146Z,100169.98
2022-11-08T11:15:34.123Z,100165.55
2022-11-08T11:18:00.941Z,100164.17
2022-11-08T11:20:27.906Z,100156.25
2022-11-08T11:22:55.861Z,100156.01
2022-11-08T11:25:24.808Z,100159.77
2022-11-08T11:27:56.624Z,100162.64
2022-11-08T11:30:33.566Z,100159.71
2022-11-08T11:33:07.578Z,100159.80
2022-11-08T11:35:41.385Z,100155.11
2022-11-08T11:38:16.064Z,100156.55
2022-11-08T11:40:47.145Z,100157.74
2022-11-08T11:43:21.523Z,100158.90
2022-11-08T11:45:55.983Z,100160.50
2022-11-08T11:48:27.472Z,100161.38
2022-11-08T11:50:54.803Z,100164.23
2022-11-08T11:53:25.510Z,100161.88
2022-11-08T11:56:27.360Z,100155.73
2022-11-08T11:59:09.488Z,100160.85
2022-11-08T12:01:55.111Z,100156.10
2022-11-08T12:04:52.338Z,100160.08
2022-11-08T12:07:24.915Z,100161.27
2022-11-08T12:10:02.355Z,100165.63
2022-11-08T12:12:40.908Z,100164.20
2022-11-08T12:15:23.158Z,100166.48
2022-11-08T12:18:10.449Z,100167.05
2022-11-08T12:20:48.619Z,100166.88
2022-11-08T12:23:39.135Z,100162.03
2022-11-08T12:26:16.529Z,100156.34
2022-11-08T12:28:56.280Z,100157.89
2022-11-08T12:31:31.303Z,100158.36
2022-11-08T12:34:21.442Z,100152.91
2022-11-08T12:36:59.706Z,100150.65
2022-11-08T12:39:36.777Z,100147.20
2022-11-08T12:42:15.717Z,100150.84
2022-11-08T12:45:20.932Z,100152.04
2022-11-08T12:47:54.938Z,100149.99
2022-11-08T12:50:30.513Z,100144.81
2022-11-08T12:53:24.302Z,100140.90
2022-11-08T12:55:52.764Z,100141.42
2022-11-08T12:58:34.318Z,100139.89
2022-11-08T13:01:06.256Z,100142.11
2022-11-08T13:04:06.489Z,100142.90
2022-11-08T13:06:43.120Z,100144.68
2022-11-08T13:09:19.749Z,100143.55
2022-11-08T13:11:56.212Z,100136.83
2022-11-08T13:14:25.061Z,100142.74
2022-11-08T13:17:16.458Z,100139.69
2022-11-08T13:20:25.789Z,100133.72
2022-11-08T13:23:12.658Z,100124.08
2022-11-08T13:25:44.272Z,100125.64
2022-11-08T13:28:45.207Z,100124.30
2022-11-08T13:31:33.377Z,100124.16
2022-11-08T13:34:32.964Z,100121.05
2022-11-08T13:37:22.773Z,100113.86
2022-11-08T13:40:06.698Z,100117.98
2022-11-08T13:42:57.786Z,100114.34
2022-11-08T13:45:31.675Z,100115.88
2022-11-08T13:48:03.519Z,100117.64
2022-11-08T13:50:55.536Z,100120.48
2022-11-08T13:53:46.321Z,100119.60
2022-11-08T13:56:46.975Z,100122.61
2022-11-08T13:59:50.088Z,100125.14
2022-11-08T14:02:39.099Z,100124.99
2022-11-08T14:05:25.329Z,100126.92
2022-11-08T14:08:18.146Z,100127.97
2022-11-08T14:10:59.238Z,100127.91
2022-11-08T14:13:33.578Z,100127.30
2022-11-08T14:16:08.125Z,100132.08
2022-11-08T14:18:39.296Z,100125.30
2022-11-08T14:21:08.104Z,100120.84
2022-11-08T14:23:38.462Z,100117.17
2022-11-08T14:26:11.958Z,100119.48
2022-11-08T14:28:40.979Z,100118.73
2022-11-08T14:31:22.833Z,100121.40
2022-11-08T14:33:50.086Z,100125.38
2022-11-08T14:36:19.671Z,100124.56
2022-11-08T14:38:51.647Z,100129.16
2022-11-08T14:41:23.279Z,100128.90
2022-11-08T14:43:51.969Z,100133.29
2022-11-08T14:46:26.512Z,100140.38
2022-11-08T14:48:55.618Z,100139.15
2022-11-08T14:51:23.104Z,100135.00
2022-11-08T14:53:52.296Z,100139.75
2022-11-08T14:56:22.098Z,100136.98
2022-11-08T14:58:53.328Z,100139.95
2022-11-08T15:01:24.108Z,100146.24
2022-11-08T15:03:56.607Z,100148.14
2022-11-08T15:06:30.624Z,100140.27
2022-11-08T15:08:58.402Z,100142.11
2022-11-08T15:11:32.384Z,100136.96
2022-11-08T15:14:02.115Z,100139.27
2022-11-08T15:16:29.741Z,100141.38
2022-11-08T15:18:56.962Z,100142.83
2022-11-08T15:21:30.855Z,100146.15
2022-11-08T15:24:15.288Z,100149.61
2022-11-08T15:27:00.840Z,100144.03
2022-11-08T15:29:27.798Z,100138.30
2022-11-08T15:32:01.356Z,100135.13
2022-11-08T15:34:34.793Z,100132.21
2022-11-08T15:37:01.653Z,100135.91
2022-11-08T15:39:38.782Z,100128.63
2022-11-08T15:42:14.146Z,100130.73
2022-11-08T15:45:01.709Z,100133.20
2022-11-08T15:47:44.616Z,100133.97
2022-11-08T15:50:20.692Z,100131.06
2022-11-08T15:52:49.397Z,100131.23
2022-11-08T15:55:19.481Z,100127.69
2022-11-08T15:57:47.739Z,100127.66
2022-11-08T16:00:22.219Z,100127.48
2022-11-08T16:02:49.541Z,100125.95
2022-11-08T16:05:22.882Z,100129.21
2022-11-08T16:07:50.233Z,100127.95
2022-11-08T16:10:19.577Z,100124.46
2022-11-08T16:12:48.850Z,100122.88
2022-11-08T16:15:18.807Z,100124.77
2022-11-08T16:17:45.948Z,100122.31
2022-11-08T16:20:27.023Z,100121.42
2022-11-08T16:22:54.245Z,100129.38
2022-11-08T16:25:21.086Z,100128.88
2022-11-08T16:27:52.201Z,100134.88
2022-11-08T16:30:20.058Z,100135.38
2022-11-08T16:32:47.225Z,100133.41
2022-11-08T16:35:14.435Z,100133.52
2022-11-08T16:37:42.321Z,100132.63
2022-11-08T16:40:18.035Z,100138.66
2022-11-08T16:42:45.142Z,100140.88
2022-11-08T16:45:14.244Z,100137.98
2022-11-08T16:47:42.295Z,100136.85
2022-11-08T16:50:14.835Z,100134.86
2022-11-08T16:52:42.109Z,100137.61
2022-11-08T16:55:17.629Z,100138.61
2022-11-08T16:57:45.557Z,100137.90
2022-11-08T17:00:15.509Z,100141.34
2022-11-08T17:02:46.473Z,100140.98
2022-11-08T17:05:18.819Z,100137.91
2022-11-08T17:07:45.840Z,100136.23
2022-11-08T17:10:16.736Z,100136.71
2022-11-08T17:12:43.803Z,100133.67
2022-11-08T17:15:14.901Z,100137.75
2022-11-08T17:17:41.974Z,100138.70
2022-11-08T17:20:12.528Z,100135.54
2022-11-08T17:22:39.910Z,100132.00
2022-11-08T17:25:08.423Z,100134.06
2022-11-08T17:27:35.402Z,100131.09
2022-11-08T17:30:02.716Z,100132.33
2022-11-08T17:32:29.759Z,100134.45
2022-11-08T17:34:56.722Z,100132.52
2022-11-08T17:37:26.490Z,100134.44
2022-11-08T17:39:55.489Z,100137.63
2022-11-08T17:42:23.032Z,100136.91
2022-11-08T17:44:50.031Z,100134.84
2022-11-08T17:47:16.886Z,100138.48
2022-11-08T17:49:44.368Z,100136.74
2022-11-08T17:52:11.842Z,100141.90
2022-11-08T17:54:38.675Z,100136.77
2022-11-08T17:57:07.744Z,100140.27
2022-11-08T17:59:35.532Z,100142.59
2022-11-08T18:02:02.832Z,100141.48
2022-11-08T18:04:30.612Z,100140.73
2022-11-08T18:06:57.855Z,100143.67
2022-11-08T18:09:24.758Z,100143.54
2022-11-08T18:11:51.751Z,100146.15
2022-11-08T18:14:23.007Z,100149.52
2022-11-08T18:16:52.619Z,100150.10
2022-11-08T18:19:19.979Z,100147.15
2022-11-08T18:21:47.869Z,100144.38
2022-11-08T18:24:15.202Z,100143.27
2022-11-08T18:26:44.961Z,100144.09
2022-11-08T18:29:12.238Z,100143.31
2022-11-08T18:31:39.178Z,100141.34
2022-11-08T18:34:06.267Z,100141.96
2022-11-08T18:36:33.433Z,100138.21
2022-11-08T18:39:02.808Z,100137.51
2022-11-08T18:41:32.054Z,100134.97
2022-11-08T18:44:00.839Z,100137.27
2022-11-08T18:46:29.440Z,100134.73
2022-11-08T18:48:56.528Z,100132.70
2022-11-08T18:51:24.694Z,100129.47
2022-11-08T18:53:53.097Z,100129.42
2022-11-08T18:56:20.430Z,100133.02
2022-11-08T18:58:48.291Z,100132.63
2022-11-08T19:01:16.352Z,100131.77
2022-11-08T19:03:43.523Z,100132.77
2022-11-08T19:06:11.206Z,100137.08
2022-11-08T19:08:38.460Z,100135.33
2022-11-08T19:11:08.146Z,100142.73
2022-11-08T19:13:37.011Z,100139.23
2022-11-08T19:16:06.684Z,100145.79
2022-11-08T19:18:34.646Z,100149.91
2022-11-08T19:21:05.089Z,100157.54
2022-11-08T19:23:32.237Z,100155.27
2022-11-08T19:26:01.606Z,100158.14
2022-11-08T19:28:32.828Z,100160.40
2022-11-08T19:31:02.624Z,100159.84
2022-11-08T19:33:31.190Z,100158.41
2022-11-08T19:36:00.857Z,100163.16
2022-11-08T19:38:27.782Z,100163.29
2022-11-08T19:40:54.652Z,100158.89
2022-11-08T19:43:21.682Z,100163.50
2022-11-08T19:45:53.266Z,100166.02
2022-11-08T19:48:20.723Z,100163.85
2022-11-08T19:50:48.246Z,100163.91
2022-11-08T19:53:15.276Z,100164.56
2022-11-08T19:55:43.475Z,100164.66
2022-11-08T19:58:10.354Z,100169.76
2022-11-08T20:00:37.494Z,100166.52
2022-11-08T20:03:04.419Z,100166.59
2022-11-08T20:05:31.261Z,100166.27
2022-11-08T20:07:58.320Z,100167.52
2022-11-08T20:10:26.904Z,100170.20
2022-11-08T20:12:53.779Z,100169.95
2022-11-08T20:15:20.782Z,100174.21
2022-11-08T20:17:47.718Z,100173.07
2022-11-08T20:20:15.381Z,100171.09
2022-11-08T20:22:47.848Z,100170.97
2022-11-08T20:25:14.983Z,100166.55
2022-11-08T20:27:42.211Z,100168.52
2022-11-08T20:30:11.324Z,100167.39
2022-11-08T20:32:38.268Z,100162.41
2022-11-08T20:35:05.379Z,100160.89
2022-11-08T20:37:32.182Z,100156.23
2022-11-08T20:39:59.116Z,100156.25
2022-11-08T20:42:25.984Z,100156.05
2022-11-08T20:44:53.449Z,100154.95
2022-11-08T20:47:20.418Z,100151.30
2022-11-08T20:49:47.354Z,100155.97
2022-11-08T20:52:16.708Z,100151.13
2022-11-08T20:54:44.138Z,100150.09
2022-11-08T20:57:11.348Z,100150.66
2022-11-08T20:59:38.351Z,100149.16
2022-11-08T21:02:05.322Z,100148.69
2022-11-08T21:04:32.377Z,100149.95
2022-11-08T21:08:00.291Z,100149.81
2022-11-08T21:09:50.305Z,100145.77
2022-11-08T21:12:18.742Z,100143.39
2022-11-08T21:14:45.671Z,100147.06
2022-11-08T21:17:21.716Z,100142.48
2022-11-08T21:19:50.988Z,100143.98
2022-11-08T21:22:18.209Z,100144.25
2022-11-08T21:24:46.360Z,100142.10
2022-11-08T21:27:13.384Z,100143.21
2022-11-08T21:29:40.211Z,100145.05
2022-11-08T21:32:07.891Z,100145.33
2022-11-08T21:34:34.811Z,100143.00
2022-11-08T21:37:01.504Z,100144.27
2022-11-08T21:39:28.328Z,100141.87
2022-11-08T21:41:55.078Z,100141.44
2022-11-08T21:44:21.822Z,100141.33
2022-11-08T21:46:48.674Z,100140.67
2022-11-08T21:49:15.740Z,100135.52
2022-11-08T21:51:42.596Z,100137.66
2022-11-08T21:54:09.533Z,100139.10
2022-11-08T21:56:38.949Z,100141.02
2022-11-08T21:59:06.083Z,100142.64
2022-11-08T22:01:32.875Z,100143.19
2022-11-08T22:03:59.815Z,100140.08
2022-11-08T22:06:26.714Z,100143.55
2022-11-08T22:08:53.485Z,100145.64
2022-11-08T22:11:20.428Z,100149.60
2022-11-08T22:13:47.168Z,100142.02
2022-11-08T22:16:13.987Z,100141.52
2022-11-08T22:21:43.145Z,100138.59
2022-11-08T22:24:12.241Z,100141.23
2022-11-08T22:26:39.461Z,100139.73
2022-11-08T22:29:07.226Z,100137.52
2022-11-08T22:31:34.434Z,100139.47
2022-11-08T22:34:01.486Z,100140.87
2022-11-08T22:36:28.682Z,100144.86
2022-11-08T22:38:55.755Z,100147.12
2022-11-08T22:41:23.484Z,100145.08
2022-11-08T22:43:50.508Z,100145.09
2022-11-08T22:46:17.556Z,100147.36
2022-11-08T22:48:44.346Z,100150.69
2022-11-08T22:51:11.429Z,100148.45
2022-11-08T22:53:38.324Z,100150.34
2022-11-08T22:56:10.802Z,100147.39
2022-11-08T22:58:37.923Z,100145.17
2022-11-08T23:01:04.803Z,100146.14
2022-11-08T23:03:31.650Z,100143.27
2022-11-08T23:05:59.412Z,100145.59
2022-11-08T23:08:27.500Z,100145.96
2022-11-08T23:11:12.673Z,100145.30
2022-11-08T23:13:57.944Z,100142.05
2022-11-08T23:16:36.509Z,100141.23
2022-11-08T23:19:22.834Z,100135.24
2022-11-08T23:22:07.285Z,100130.45
2022-11-08T23:24:34.184Z,100131.55
2022-11-08T23:27:19.077Z,100135.73
2022-11-08T23:30:03.576Z,100136.10
2022-11-08T23:32:30.606Z,100130.92
2022-11-08T23:34:57.447Z,100127.34
2022-11-08T23:37:24.202Z,100130.64
2022-11-08T23:40:09.298Z,100132.05
2022-11-08T23:42:53.408Z,100128.60
2022-11-08T23:45:20.440Z,100135.05
2022-11-08T23:47:47.282Z,100133.54
2022-11-08T23:50:14.627Z,100132.05
2022-11-08T23:52:42.193Z,100127.79
2022-11-08T23:55:10.919Z,100121.75
2022-11-08T23:57:37.767Z,100123.19
